Terminal Aerodrome Forecast
Issued by NWS

Home | Current Version | Previous Version | Text Only | Print | Product List | Glossary On
Versions: 1 2 3 4 5 6 7 8 9 10 11 12 13 14 15 16 17
000
FTUS43 KDVN 061739
TAFCID
TAF
KCID 061739Z 0618/0718 19012KT 6SM BR VCTS SCT020 BKN040CB
      TEMPO 0618/0619 BKN015CB
     FM062000 22010KT 3SM TSRA BR OVC025CB
     FM070100 33012KT 6SM BR VCTS OVC025CB
     FM070300 34010KT 5SM BR BKN015
     FM071400 02012KT P6SM SCT050=

USA.gov is the U.S. government's official web portal to all federal, state and local government web resources and services.